Terminal Aerodrome Forecast
Issued by NWS

Home | Current Version | Previous Version | Graphics & Text | Print | Product List | Glossary On
Versions: 1 2 3 4 5 6 7 8 9 10 11 12 13 14 15 16 17 18 19
000
FTUS43 KIWX 291100
TAFSBN
TAF
KSBN 291120Z 2912/3012 24010KT P6SM BKN035
     FM291400 28012G20KT P6SM BKN030
     FM292300 30007KT P6SM BKN040
     FM300500 VRB03KT P6SM SCT040=

USA.gov is the U.S. government's official web portal to all federal, state and local government web resources and services.